sensor_id;sensor_type;location;lat;lon;timestamp;pressure;altitude;pressure_sealevel;temperature
69704;BMP280;56967;43.538;-5.646;2023-03-01T00:00:14;102355.03;;;9.03
69704;BMP280;56967;43.538;-5.646;2023-03-01T00:02:40;102365.16;;;8.90
69704;BMP280;56967;43.538;-5.646;2023-03-01T00:05:05;102358.91;;;8.83
69704;BMP280;56967;43.538;-5.646;2023-03-01T00:07:32;102356.56;;;8.80
69704;BMP280;56967;43.538;-5.646;2023-03-01T00:09:58;102351.63;;;8.69
69704;BMP280;56967;43.538;-5.646;2023-03-01T00:12:23;102351.16;;;8.73
69704;BMP280;56967;43.538;-5.646;2023-03-01T00:14:49;102341.75;;;8.63
69704;BMP280;56967;43.538;-5.646;2023-03-01T00:17:14;102343.97;;;8.50
69704;BMP280;56967;43.538;-5.646;2023-03-01T00:19:40;102332.66;;;8.49
69704;BMP280;56967;43.538;-5.646;2023-03-01T00:22:05;102322.34;;;8.48
69704;BMP280;56967;43.538;-5.646;2023-03-01T00:24:31;102306.13;;;8.44
69704;BMP280;56967;43.538;-5.646;2023-03-01T00:26:56;102303.00;;;8.41
69704;BMP280;56967;43.538;-5.646;2023-03-01T00:29:24;102297.75;;;8.41
69704;BMP280;56967;43.538;-5.646;2023-03-01T00:31:49;102292.38;;;8.42
69704;BMP280;56967;43.538;-5.646;2023-03-01T00:34:15;102289.28;;;8.47
69704;BMP280;56967;43.538;-5.646;2023-03-01T00:36:41;102285.03;;;8.46
69704;BMP280;56967;43.538;-5.646;2023-03-01T00:39:11;102286.00;;;8.45
69704;BMP280;56967;43.538;-5.646;2023-03-01T00:41:38;102283.22;;;8.46
69704;BMP280;56967;43.538;-5.646;2023-03-01T00:44:05;102278.28;;;8.43
69704;BMP280;56967;43.538;-5.646;2023-03-01T00:46:31;102281.88;;;8.42
69704;BMP280;56967;43.538;-5.646;2023-03-01T00:48:56;102283.50;;;8.43
69704;BMP280;56967;43.538;-5.646;2023-03-01T00:51:24;102289.88;;;8.41
69704;BMP280;56967;43.538;-5.646;2023-03-01T00:53:52;102284.31;;;8.36
69704;BMP280;56967;43.538;-5.646;2023-03-01T00:56:18;102287.91;;;8.35
69704;BMP280;56967;43.538;-5.646;2023-03-01T00:58:44;102284.63;;;8.33
69704;BMP280;56967;43.538;-5.646;2023-03-01T01:01:16;102287.88;;;8.26
69704;BMP280;56967;43.538;-5.646;2023-03-01T01:03:45;102290.97;;;8.30
69704;BMP280;56967;43.538;-5.646;2023-03-01T01:06:23;102282.28;;;8.29
69704;BMP280;56967;43.538;-5.646;2023-03-01T01:08:50;102281.81;;;8.26
69704;BMP280;56967;43.538;-5.646;2023-03-01T01:11:18;102281.81;;;8.26
69704;BMP280;56967;43.538;-5.646;2023-03-01T01:13:45;102282.78;;;8.25
69704;BMP280;56967;43.538;-5.646;2023-03-01T01:16:10;102271.19;;;8.27
69704;BMP280;56967;43.538;-5.646;2023-03-01T01:18:36;102272.19;;;8.35
69704;BMP280;56967;43.538;-5.646;2023-03-01T01:21:13;102267.13;;;8.33
69704;BMP280;56967;43.538;-5.646;2023-03-01T01:23:40;102262.38;;;8.37
69704;BMP280;56967;43.538;-5.646;2023-03-01T01:26:13;102261.19;;;8.31
69704;BMP280;56967;43.538;-5.646;2023-03-01T01:28:39;102258.91;;;8.28
69704;BMP280;56967;43.538;-5.646;2023-03-01T01:31:06;102252.47;;;8.22
69704;BMP280;56967;43.538;-5.646;2023-03-01T01:33:32;102250.97;;;8.20
69704;BMP280;56967;43.538;-5.646;2023-03-01T01:35:57;102253.31;;;8.23
69704;BMP280;56967;43.538;-5.646;2023-03-01T01:38:23;102250.56;;;8.33
69704;BMP280;56967;43.538;-5.646;2023-03-01T01:40:49;102244.88;;;8.37
69704;BMP280;56967;43.538;-5.646;2023-03-01T01:43:24;102253.00;;;8.26
69704;BMP280;56967;43.538;-5.646;2023-03-01T01:45:50;102243.53;;;8.33
69704;BMP280;56967;43.538;-5.646;2023-03-01T01:48:21;102243.38;;;8.35
69704;BMP280;56967;43.538;-5.646;2023-03-01T01:50:54;102235.47;;;8.26
69704;BMP280;56967;43.538;-5.646;2023-03-01T01:53:21;102228.28;;;8.28
69704;BMP280;56967;43.538;-5.646;2023-03-01T01:55:50;102223.34;;;8.25
69704;BMP280;56967;43.538;-5.646;2023-03-01T01:58:19;102226.16;;;8.24
69704;BMP280;56967;43.538;-5.646;2023-03-01T02:00:45;102214.00;;;8.15
69704;BMP280;56967;43.538;-5.646;2023-03-01T02:03:15;102214.97;;;8.22
69704;BMP280;56967;43.538;-5.646;2023-03-01T02:05:51;102201.88;;;8.14
69704;BMP280;56967;43.538;-5.646;2023-03-01T02:08:20;102202.47;;;8.08
69704;BMP280;56967;43.538;-5.646;2023-03-01T02:10:48;102199.69;;;8.09
69704;BMP280;56967;43.538;-5.646;2023-03-01T02:13:14;102200.00;;;8.06
69704;BMP280;56967;43.538;-5.646;2023-03-01T02:15:41;102189.72;;;8.05
69704;BMP280;56967;43.538;-5.646;2023-03-01T02:18:10;102178.88;;;8.00
69704;BMP280;56967;43.538;-5.646;2023-03-01T02:21:02;102173.44;;;7.93
69704;BMP280;56967;43.538;-5.646;2023-03-01T02:23:30;102161.94;;;7.86
69704;BMP280;56967;43.538;-5.646;2023-03-01T02:28:37;102145.69;;;7.74
69704;BMP280;56967;43.538;-5.646;2023-03-01T02:31:05;102137.19;;;7.72
69704;BMP280;56967;43.538;-5.646;2023-03-01T02:33:51;102122.91;;;7.67
69704;BMP280;56967;43.538;-5.646;2023-03-01T02:36:20;102127.19;;;7.76
69704;BMP280;56967;43.538;-5.646;2023-03-01T02:38:46;102113.25;;;7.67
69704;BMP280;56967;43.538;-5.646;2023-03-01T02:41:15;102112.84;;;7.54
69704;BMP280;56967;43.538;-5.646;2023-03-01T02:43:42;102104.66;;;7.49
69704;BMP280;56967;43.538;-5.646;2023-03-01T02:46:17;102096.59;;;7.43
69704;BMP280;56967;43.538;-5.646;2023-03-01T02:48:49;102084.19;;;7.45
69704;BMP280;56967;43.538;-5.646;2023-03-01T02:56:42;102069.06;;;7.31
69704;BMP280;56967;43.538;-5.646;2023-03-01T02:59:09;102067.25;;;7.31
69704;BMP280;56967;43.538;-5.646;2023-03-01T03:01:34;102067.50;;;7.20
69704;BMP280;56967;43.538;-5.646;2023-03-01T03:04:07;102069.00;;;7.22
69704;BMP280;56967;43.538;-5.646;2023-03-01T03:06:35;102077.53;;;7.24
69704;BMP280;56967;43.538;-5.646;2023-03-01T03:09:02;102066.56;;;7.29
69704;BMP280;56967;43.538;-5.646;2023-03-01T03:11:28;102070.34;;;7.27
69704;BMP280;56967;43.538;-5.646;2023-03-01T03:13:54;102061.44;;;7.19
69704;BMP280;56967;43.538;-5.646;2023-03-01T03:16:20;102066.03;;;7.17
69704;BMP280;56967;43.538;-5.646;2023-03-01T03:18:46;102062.19;;;7.30
69704;BMP280;56967;43.538;-5.646;2023-03-01T03:21:12;102057.28;;;7.27
69704;BMP280;56967;43.538;-5.646;2023-03-01T03:23:38;102053.38;;;7.31
69704;BMP280;56967;43.538;-5.646;2023-03-01T03:26:05;102053.75;;;7.36
69704;BMP280;56967;43.538;-5.646;2023-03-01T03:28:34;102046.59;;;7.46
69704;BMP280;56967;43.538;-5.646;2023-03-01T03:31:00;102042.31;;;7.37
69704;BMP280;56967;43.538;-5.646;2023-03-01T03:33:30;102026.63;;;7.37
69704;BMP280;56967;43.538;-5.646;2023-03-01T03:35:56;102016.75;;;7.31
69704;BMP280;56967;43.538;-5.646;2023-03-01T03:38:21;101999.94;;;7.33
69704;BMP280;56967;43.538;-5.646;2023-03-01T03:40:52;101986.81;;;7.25
69704;BMP280;56967;43.538;-5.646;2023-03-01T03:43:20;101973.09;;;7.23
69704;BMP280;56967;43.538;-5.646;2023-03-01T03:45:47;101958.34;;;7.14
69704;BMP280;56967;43.538;-5.646;2023-03-01T03:48:13;101949.38;;;7.16
69704;BMP280;56967;43.538;-5.646;2023-03-01T03:50:40;101942.34;;;7.17
69704;BMP280;56967;43.538;-5.646;2023-03-01T03:53:08;101942.00;;;7.12
69704;BMP280;56967;43.538;-5.646;2023-03-01T03:55:35;101926.44;;;7.10
69704;BMP280;56967;43.538;-5.646;2023-03-01T03:58:02;101924.84;;;7.17
69704;BMP280;56967;43.538;-5.646;2023-03-01T04:00:33;101915.88;;;7.20
69704;BMP280;56967;43.538;-5.646;2023-03-01T04:02:59;101911.31;;;7.22
69704;BMP280;56967;43.538;-5.646;2023-03-01T04:05:26;101921.47;;;7.33
69704;BMP280;56967;43.538;-5.646;2023-03-01T04:07:52;101912.34;;;7.37
69704;BMP280;56967;43.538;-5.646;2023-03-01T04:10:27;101917.25;;;7.32
69704;BMP280;56967;43.538;-5.646;2023-03-01T04:12:52;101919.56;;;7.43
69704;BMP280;56967;43.538;-5.646;2023-03-01T04:15:18;101913.34;;;7.44
69704;BMP280;56967;43.538;-5.646;2023-03-01T04:17:46;101907.31;;;7.44
69704;BMP280;56967;43.538;-5.646;2023-03-01T04:20:17;101911.38;;;7.38
69704;BMP280;56967;43.538;-5.646;2023-03-01T04:22:44;101910.28;;;7.57
69704;BMP280;56967;43.538;-5.646;2023-03-01T04:25:13;101906.91;;;7.72
69704;BMP280;56967;43.538;-5.646;2023-03-01T04:27:40;101904.63;;;7.78
69704;BMP280;56967;43.538;-5.646;2023-03-01T04:30:08;101891.22;;;7.72
69704;BMP280;56967;43.538;-5.646;2023-03-01T04:32:34;101893.97;;;7.63
69704;BMP280;56967;43.538;-5.646;2023-03-01T04:35:00;101881.72;;;7.63
69704;BMP280;56967;43.538;-5.646;2023-03-01T04:37:26;101873.84;;;7.71
69704;BMP280;56967;43.538;-5.646;2023-03-01T04:39:51;101868.31;;;7.74
69704;BMP280;56967;43.538;-5.646;2023-03-01T04:42:17;101867.66;;;7.81
69704;BMP280;56967;43.538;-5.646;2023-03-01T04:44:44;101876.00;;;7.92
69704;BMP280;56967;43.538;-5.646;2023-03-01T04:47:09;101870.25;;;7.97
69704;BMP280;56967;43.538;-5.646;2023-03-01T04:49:35;101871.59;;;8.01
69704;BMP280;56967;43.538;-5.646;2023-03-01T04:52:01;101863.22;;;7.89
69704;BMP280;56967;43.538;-5.646;2023-03-01T04:54:33;101849.66;;;8.02
69704;BMP280;56967;43.538;-5.646;2023-03-01T04:56:59;101846.88;;;8.03
69704;BMP280;56967;43.538;-5.646;2023-03-01T04:59:25;101864.53;;;8.09
69704;BMP280;56967;43.538;-5.646;2023-03-01T05:01:52;101855.53;;;8.12
69704;BMP280;56967;43.538;-5.646;2023-03-01T05:04:21;101852.94;;;8.04
69704;BMP280;56967;43.538;-5.646;2023-03-01T05:06:46;101841.31;;;8.14
69704;BMP280;56967;43.538;-5.646;2023-03-01T05:09:12;101847.38;;;8.15
69704;BMP280;56967;43.538;-5.646;2023-03-01T05:11:38;101846.53;;;8.22
69704;BMP280;56967;43.538;-5.646;2023-03-01T05:14:07;101850.94;;;8.22
69704;BMP280;56967;43.538;-5.646;2023-03-01T05:16:33;101842.91;;;8.32
69704;BMP280;56967;43.538;-5.646;2023-03-01T05:18:58;101842.59;;;8.18
69704;BMP280;56967;43.538;-5.646;2023-03-01T05:21:24;101855.69;;;8.18
69704;BMP280;56967;43.538;-5.646;2023-03-01T05:23:51;101850.47;;;8.18
69704;BMP280;56967;43.538;-5.646;2023-03-01T05:26:18;101851.78;;;8.22
69704;BMP280;56967;43.538;-5.646;2023-03-01T05:28:45;101859.16;;;8.27
69704;BMP280;56967;43.538;-5.646;2023-03-01T05:31:10;101850.16;;;8.13
69704;BMP280;56967;43.538;-5.646;2023-03-01T05:33:37;101850.47;;;8.26
69704;BMP280;56967;43.538;-5.646;2023-03-01T05:36:03;101852.75;;;8.21
69704;BMP280;56967;43.538;-5.646;2023-03-01T05:38:29;101861.75;;;7.62
69704;BMP280;56967;43.538;-5.646;2023-03-01T05:40:55;101836.72;;;8.08
69704;BMP280;56967;43.538;-5.646;2023-03-01T05:43:20;101836.41;;;8.19
69704;BMP280;56967;43.538;-5.646;2023-03-01T05:45:46;101831.34;;;8.10
69704;BMP280;56967;43.538;-5.646;2023-03-01T05:48:12;101825.91;;;8.19
69704;BMP280;56967;43.538;-5.646;2023-03-01T05:50:43;101826.59;;;8.13
69704;BMP280;56967;43.538;-5.646;2023-03-01T05:53:18;101817.91;;;8.13
69704;BMP280;56967;43.538;-5.646;2023-03-01T05:55:44;101817.25;;;8.11
69704;BMP280;56967;43.538;-5.646;2023-03-01T05:58:15;101817.94;;;8.05
69704;BMP280;56967;43.538;-5.646;2023-03-01T06:00:42;101813.19;;;8.00
69704;BMP280;56967;43.538;-5.646;2023-03-01T06:03:10;101821.19;;;8.07
69704;BMP280;56967;43.538;-5.646;2023-03-01T06:05:36;101820.53;;;8.13
69704;BMP280;56967;43.538;-5.646;2023-03-01T06:08:02;101815.47;;;8.03
69704;BMP280;56967;43.538;-5.646;2023-03-01T06:10:28;101812.00;;;8.11
69704;BMP280;56967;43.538;-5.646;2023-03-01T06:12:55;101806.75;;;8.11
69704;BMP280;56967;43.538;-5.646;2023-03-01T06:15:21;101815.44;;;8.19
69704;BMP280;56967;43.538;-5.646;2023-03-01T06:17:47;101823.31;;;8.19
69704;BMP280;56967;43.538;-5.646;2023-03-01T06:20:21;101826.75;;;8.28
69704;BMP280;56967;43.538;-5.646;2023-03-01T06:22:47;101818.53;;;8.31
69704;BMP280;56967;43.538;-5.646;2023-03-01T06:25:15;101828.31;;;8.29
69704;BMP280;56967;43.538;-5.646;2023-03-01T06:27:41;101810.84;;;8.38
69704;BMP280;56967;43.538;-5.646;2023-03-01T06:30:09;101820.81;;;8.34
69704;BMP280;56967;43.538;-5.646;2023-03-01T06:32:36;101811.16;;;8.35
69704;BMP280;56967;43.538;-5.646;2023-03-01T06:35:03;101809.16;;;8.45
69704;BMP280;56967;43.538;-5.646;2023-03-01T06:37:29;101819.97;;;8.42
69704;BMP280;56967;43.538;-5.646;2023-03-01T06:39:55;101824.06;;;8.44
69704;BMP280;56967;43.538;-5.646;2023-03-01T06:42:20;101826.50;;;8.54
69704;BMP280;56967;43.538;-5.646;2023-03-01T06:44:46;101833.22;;;8.40
69704;BMP280;56967;43.538;-5.646;2023-03-01T06:47:12;101830.28;;;8.51
69704;BMP280;56967;43.538;-5.646;2023-03-01T06:49:37;101834.66;;;8.59
69704;BMP280;56967;43.538;-5.646;2023-03-01T06:52:03;101837.56;;;8.72
69704;BMP280;56967;43.538;-5.646;2023-03-01T06:54:28;101840.84;;;8.66
69704;BMP280;56967;43.538;-5.646;2023-03-01T06:56:54;101844.25;;;8.74
69704;BMP280;56967;43.538;-5.646;2023-03-01T06:59:20;101831.13;;;8.82
69704;BMP280;56967;43.538;-5.646;2023-03-01T07:01:45;101834.38;;;8.93
69704;BMP280;56967;43.538;-5.646;2023-03-01T07:04:12;101832.25;;;8.88
69704;BMP280;56967;43.538;-5.646;2023-03-01T07:06:38;101831.03;;;8.99
69704;BMP280;56967;43.538;-5.646;2023-03-01T07:09:03;101832.03;;;9.06
69704;BMP280;56967;43.538;-5.646;2023-03-01T07:11:29;101833.06;;;8.97
69704;BMP280;56967;43.538;-5.646;2023-03-01T07:13:54;101828.63;;;8.97
69704;BMP280;56967;43.538;-5.646;2023-03-01T07:16:21;101827.00;;;8.88
69704;BMP280;56967;43.538;-5.646;2023-03-01T07:18:46;101818.47;;;8.55
69704;BMP280;56967;43.538;-5.646;2023-03-01T07:21:13;101820.91;;;8.49
69704;BMP280;56967;43.538;-5.646;2023-03-01T07:23:39;101805.69;;;8.52
69704;BMP280;56967;43.538;-5.646;2023-03-01T07:26:05;101784.72;;;8.60
69704;BMP280;56967;43.538;-5.646;2023-03-01T07:28:31;101771.75;;;8.67
69704;BMP280;56967;43.538;-5.646;2023-03-01T07:31:02;101779.00;;;8.49
69704;BMP280;56967;43.538;-5.646;2023-03-01T07:33:28;101758.09;;;8.41
69704;BMP280;56967;43.538;-5.646;2023-03-01T07:36:01;101740.69;;;8.56
69704;BMP280;56967;43.538;-5.646;2023-03-01T07:38:28;101738.38;;;8.53
69704;BMP280;56967;43.538;-5.646;2023-03-01T07:40:58;101741.88;;;8.45
69704;BMP280;56967;43.538;-5.646;2023-03-01T07:43:24;101738.72;;;8.50
69704;BMP280;56967;43.538;-5.646;2023-03-01T07:45:49;101726.97;;;8.46
69704;BMP280;56967;43.538;-5.646;2023-03-01T07:48:15;101738.78;;;8.42
69704;BMP280;56967;43.538;-5.646;2023-03-01T07:50:40;101739.78;;;8.33
69704;BMP280;56967;43.538;-5.646;2023-03-01T07:53:06;101728.00;;;8.37
69704;BMP280;56967;43.538;-5.646;2023-03-01T07:55:31;101727.03;;;8.38
69704;BMP280;56967;43.538;-5.646;2023-03-01T07:57:57;101718.22;;;8.22
69704;BMP280;56967;43.538;-5.646;2023-03-01T08:00:23;101725.22;;;8.30
69704;BMP280;56967;43.538;-5.646;2023-03-01T08:02:48;101720.88;;;8.53
69704;BMP280;56967;43.538;-5.646;2023-03-01T08:05:14;101716.72;;;8.67
69704;BMP280;56967;43.538;-5.646;2023-03-01T08:07:39;101718.03;;;8.63
69704;BMP280;56967;43.538;-5.646;2023-03-01T08:10:05;101710.59;;;8.74
69704;BMP280;56967;43.538;-5.646;2023-03-01T08:12:31;101703.91;;;8.72
69704;BMP280;56967;43.538;-5.646;2023-03-01T08:14:57;101706.69;;;8.70
69704;BMP280;56967;43.538;-5.646;2023-03-01T08:17:22;101698.78;;;8.48
69704;BMP280;56967;43.538;-5.646;2023-03-01T08:19:48;101689.09;;;8.56
69704;BMP280;56967;43.538;-5.646;2023-03-01T08:22:13;101687.75;;;8.60
69704;BMP280;56967;43.538;-5.646;2023-03-01T08:24:39;101690.66;;;8.35
69704;BMP280;56967;43.538;-5.646;2023-03-01T08:27:04;101679.72;;;8.31
69704;BMP280;56967;43.538;-5.646;2023-03-01T08:29:31;101657.94;;;8.61
69704;BMP280;56967;43.538;-5.646;2023-03-01T08:31:57;101663.69;;;8.57
69704;BMP280;56967;43.538;-5.646;2023-03-01T08:34:23;101664.53;;;8.26
69704;BMP280;56967;43.538;-5.646;2023-03-01T08:36:48;101646.69;;;8.53
69704;BMP280;56967;43.538;-5.646;2023-03-01T08:39:16;101651.44;;;8.26
69704;BMP280;56967;43.538;-5.646;2023-03-01T08:41:43;101644.41;;;8.19
69704;BMP280;56967;43.538;-5.646;2023-03-01T08:44:11;101647.84;;;8.27
69704;BMP280;56967;43.538;-5.646;2023-03-01T08:46:39;101650.81;;;8.47
69704;BMP280;56967;43.538;-5.646;2023-03-01T08:49:14;101656.81;;;8.87
69704;BMP280;56967;43.538;-5.646;2023-03-01T08:51:40;101662.19;;;9.08
69704;BMP280;56967;43.538;-5.646;2023-03-01T08:54:10;101658.69;;;8.78
69704;BMP280;56967;43.538;-5.646;2023-03-01T08:56:36;101648.34;;;8.76
69704;BMP280;56967;43.538;-5.646;2023-03-01T08:59:02;101650.63;;;8.49
69704;BMP280;56967;43.538;-5.646;2023-03-01T09:01:28;101635.66;;;8.35
69704;BMP280;56967;43.538;-5.646;2023-03-01T09:03:54;101637.16;;;8.37
69704;BMP280;56967;43.538;-5.646;2023-03-01T09:06:19;101634.31;;;8.47
69704;BMP280;56967;43.538;-5.646;2023-03-01T09:08:47;101630.50;;;8.49
69704;BMP280;56967;43.538;-5.646;2023-03-01T09:11:16;101631.88;;;7.98
69704;BMP280;56967;43.538;-5.646;2023-03-01T09:13:43;101647.56;;;7.51
69704;BMP280;56967;43.538;-5.646;2023-03-01T09:16:08;101639.19;;;7.56
69704;BMP280;56967;43.538;-5.646;2023-03-01T09:18:35;101643.28;;;7.66
69704;BMP280;56967;43.538;-5.646;2023-03-01T09:21:09;101639.50;;;7.85
69704;BMP280;56967;43.538;-5.646;2023-03-01T09:23:38;101625.84;;;7.98
69704;BMP280;56967;43.538;-5.646;2023-03-01T09:26:11;101627.19;;;8.24
69704;BMP280;56967;43.538;-5.646;2023-03-01T09:28:38;101626.97;;;8.03
69704;BMP280;56967;43.538;-5.646;2023-03-01T09:31:04;101614.88;;;8.02
69704;BMP280;56967;43.538;-5.646;2023-03-01T09:33:32;101600.81;;;8.03
69704;BMP280;56967;43.538;-5.646;2023-03-01T09:36:03;101602.25;;;8.06
69704;BMP280;56967;43.538;-5.646;2023-03-01T09:38:29;101593.16;;;8.24
69704;BMP280;56967;43.538;-5.646;2023-03-01T09:40:54;101597.28;;;8.19
69704;BMP280;56967;43.538;-5.646;2023-03-01T09:43:31;101597.66;;;8.08
69704;BMP280;56967;43.538;-5.646;2023-03-01T09:46:04;101585.31;;;7.94
69704;BMP280;56967;43.538;-5.646;2023-03-01T09:48:40;101589.97;;;8.06
69704;BMP280;56967;43.538;-5.646;2023-03-01T09:51:15;101587.06;;;8.32
69704;BMP280;56967;43.538;-5.646;2023-03-01T09:53:42;101580.06;;;8.93
69704;BMP280;56967;43.538;-5.646;2023-03-01T09:56:49;101623.84;;;8.39
69704;BMP280;56967;43.538;-5.646;2023-03-01T09:59:32;101631.59;;;9.37
69704;BMP280;56967;43.538;-5.646;2023-03-01T10:04:46;101675.56;;;10.09
69704;BMP280;56967;43.538;-5.646;2023-03-01T10:09:55;101692.69;;;11.46
69704;BMP280;56967;43.538;-5.646;2023-03-01T10:12:26;101717.53;;;11.37
69704;BMP280;56967;43.538;-5.646;2023-03-01T10:17:52;101715.06;;;11.08
69704;BMP280;56967;43.538;-5.646;2023-03-01T10:20:22;101709.09;;;10.99
69704;BMP280;56967;43.538;-5.646;2023-03-01T10:22:48;101716.38;;;11.46
69704;BMP280;56967;43.538;-5.646;2023-03-01T10:30:50;101710.81;;;11.62
69704;BMP280;56967;43.538;-5.646;2023-03-01T10:35:51;101745.72;;;12.79
69704;BMP280;56967;43.538;-5.646;2023-03-01T10:38:18;101750.16;;;13.70
69704;BMP280;56967;43.538;-5.646;2023-03-01T10:41:00;101767.09;;;15.07
69704;BMP280;56967;43.538;-5.646;2023-03-01T10:43:47;101797.53;;;14.92
69704;BMP280;56967;43.538;-5.646;2023-03-01T10:46:36;101763.94;;;15.60
69704;BMP280;56967;43.538;-5.646;2023-03-01T10:49:22;101751.16;;;13.69
69704;BMP280;56967;43.538;-5.646;2023-03-01T10:51:52;101737.63;;;13.00
69704;BMP280;56967;43.538;-5.646;2023-03-01T10:54:31;101737.66;;;11.79
69704;BMP280;56967;43.538;-5.646;2023-03-01T10:57:00;101730.38;;;11.53
69704;BMP280;56967;43.538;-5.646;2023-03-01T11:04:38;101715.97;;;10.37
69704;BMP280;56967;43.538;-5.646;2023-03-01T11:07:04;101691.81;;;10.48
69704;BMP280;56967;43.538;-5.646;2023-03-01T11:09:33;101694.75;;;11.23
69704;BMP280;56967;43.538;-5.646;2023-03-01T11:12:13;101681.03;;;12.09
69704;BMP280;56967;43.538;-5.646;2023-03-01T11:14:50;101693.69;;;11.80
69704;BMP280;56967;43.538;-5.646;2023-03-01T11:17:30;101700.00;;;11.85
69704;BMP280;56967;43.538;-5.646;2023-03-01T11:25:17;101692.19;;;11.98
69704;BMP280;56967;43.538;-5.646;2023-03-01T11:27:45;101697.75;;;12.30
69704;BMP280;56967;43.538;-5.646;2023-03-01T11:32:53;101689.69;;;12.57
69704;BMP280;56967;43.538;-5.646;2023-03-01T11:35:27;101700.19;;;11.84
69704;BMP280;56967;43.538;-5.646;2023-03-01T11:38:24;101684.53;;;11.41
69704;BMP280;56967;43.538;-5.646;2023-03-01T11:41:14;101670.78;;;11.39
69704;BMP280;56967;43.538;-5.646;2023-03-01T11:54:49;101659.25;;;10.49
69704;BMP280;56967;43.538;-5.646;2023-03-01T11:57:36;101654.22;;;10.69
69704;BMP280;56967;43.538;-5.646;2023-03-01T12:08:37;101623.53;;;9.98
69704;BMP280;56967;43.538;-5.646;2023-03-01T12:22:47;101652.53;;;12.26
69704;BMP280;56967;43.538;-5.646;2023-03-01T12:25:33;101666.16;;;12.82
69704;BMP280;56967;43.538;-5.646;2023-03-01T12:43:05;101702.97;;;13.74
69704;BMP280;56967;43.538;-5.646;2023-03-01T12:45:54;101700.22;;;13.49
69704;BMP280;56967;43.538;-5.646;2023-03-01T12:48:49;101696.94;;;13.47
69704;BMP280;56967;43.538;-5.646;2023-03-01T12:51:21;101692.06;;;13.51
69704;BMP280;56967;43.538;-5.646;2023-03-01T12:53:49;101696.75;;;14.06
69704;BMP280;56967;43.538;-5.646;2023-03-01T12:56:22;101706.25;;;13.69
69704;BMP280;56967;43.538;-5.646;2023-03-01T12:59:15;101701.22;;;13.48
69704;BMP280;56967;43.538;-5.646;2023-03-01T13:01:51;101694.06;;;13.62
69704;BMP280;56967;43.538;-5.646;2023-03-01T13:15:36;101689.69;;;12.77
69704;BMP280;56967;43.538;-5.646;2023-03-01T13:23:26;101672.47;;;12.74
69704;BMP280;56967;43.538;-5.646;2023-03-01T13:26:11;101678.13;;;13.17
69704;BMP280;56967;43.538;-5.646;2023-03-01T13:28:47;101679.56;;;13.00
69704;BMP280;56967;43.538;-5.646;2023-03-01T13:33:55;101692.06;;;14.08
69704;BMP280;56967;43.538;-5.646;2023-03-01T13:41:55;101691.13;;;14.58
69704;BMP280;56967;43.538;-5.646;2023-03-01T13:46:50;101691.72;;;13.91
69704;BMP280;56967;43.538;-5.646;2023-03-01T13:49:19;101685.28;;;13.74
69704;BMP280;56967;43.538;-5.646;2023-03-01T13:51:48;101682.34;;;13.95
69704;BMP280;56967;43.538;-5.646;2023-03-01T13:54:16;101686.78;;;13.51
69704;BMP280;56967;43.538;-5.646;2023-03-01T13:56:44;101680.00;;;14.19
69704;BMP280;56967;43.538;-5.646;2023-03-01T13:59:14;101688.31;;;14.22
69704;BMP280;56967;43.538;-5.646;2023-03-01T14:01:40;101670.69;;;14.72
69704;BMP280;56967;43.538;-5.646;2023-03-01T14:04:21;101676.19;;;14.95
69704;BMP280;56967;43.538;-5.646;2023-03-01T14:06:47;101669.28;;;14.88
69704;BMP280;56967;43.538;-5.646;2023-03-01T14:09:20;101677.84;;;14.90
69704;BMP280;56967;43.538;-5.646;2023-03-01T14:19:58;101681.25;;;15.69
69704;BMP280;56967;43.538;-5.646;2023-03-01T14:22:27;101676.38;;;15.66
69704;BMP280;56967;43.538;-5.646;2023-03-01T14:24:57;101678.03;;;15.67
69704;BMP280;56967;43.538;-5.646;2023-03-01T14:27:26;101687.13;;;15.89
69704;BMP280;56967;43.538;-5.646;2023-03-01T14:29:58;101690.28;;;16.51
69704;BMP280;56967;43.538;-5.646;2023-03-01T14:32:26;101689.56;;;16.32
69704;BMP280;56967;43.538;-5.646;2023-03-01T14:34:53;101692.25;;;16.67
69704;BMP280;56967;43.538;-5.646;2023-03-01T14:37:26;101696.34;;;16.40
69704;BMP280;56967;43.538;-5.646;2023-03-01T14:39:52;101693.50;;;16.76
69704;BMP280;56967;43.538;-5.646;2023-03-01T14:42:21;101691.44;;;16.55
69704;BMP280;56967;43.538;-5.646;2023-03-01T14:44:52;101694.91;;;16.79
69704;BMP280;56967;43.538;-5.646;2023-03-01T14:47:38;101695.84;;;16.84
69704;BMP280;56967;43.538;-5.646;2023-03-01T14:50:40;101697.44;;;16.50
69704;BMP280;56967;43.538;-5.646;2023-03-01T14:53:07;101704.69;;;16.43
69704;BMP280;56967;43.538;-5.646;2023-03-01T14:55:42;101701.38;;;16.18
69704;BMP280;56967;43.538;-5.646;2023-03-01T14:58:13;101709.44;;;16.41
69704;BMP280;56967;43.538;-5.646;2023-03-01T15:00:46;101705.53;;;16.67
69704;BMP280;56967;43.538;-5.646;2023-03-01T15:05:52;101712.22;;;16.05
69704;BMP280;56967;43.538;-5.646;2023-03-01T15:08:24;101712.41;;;16.04
69704;BMP280;56967;43.538;-5.646;2023-03-01T15:11:19;101717.03;;;15.60
69704;BMP280;56967;43.538;-5.646;2023-03-01T15:13:47;101710.78;;;15.73
69704;BMP280;56967;43.538;-5.646;2023-03-01T15:16:15;101704.94;;;16.01
69704;BMP280;56967;43.538;-5.646;2023-03-01T15:18:54;101712.63;;;16.02
69704;BMP280;56967;43.538;-5.646;2023-03-01T15:21:23;101708.53;;;16.18
69704;BMP280;56967;43.538;-5.646;2023-03-01T15:23:54;101714.06;;;16.16
69704;BMP280;56967;43.538;-5.646;2023-03-01T15:26:32;101710.44;;;15.99
69704;BMP280;56967;43.538;-5.646;2023-03-01T15:29:00;101716.91;;;15.55
69704;BMP280;56967;43.538;-5.646;2023-03-01T15:31:29;101709.63;;;15.69
69704;BMP280;56967;43.538;-5.646;2023-03-01T15:34:32;101713.66;;;16.01
69704;BMP280;56967;43.538;-5.646;2023-03-01T15:37:00;101716.81;;;16.10
69704;BMP280;56967;43.538;-5.646;2023-03-01T15:39:31;101717.78;;;15.85
69704;BMP280;56967;43.538;-5.646;2023-03-01T15:42:12;101724.53;;;15.81
69704;BMP280;56967;43.538;-5.646;2023-03-01T15:44:40;101717.41;;;15.82
69704;BMP280;56967;43.538;-5.646;2023-03-01T15:47:29;101721.59;;;15.53
69704;BMP280;56967;43.538;-5.646;2023-03-01T15:49:57;101721.38;;;15.37
69704;BMP280;56967;43.538;-5.646;2023-03-01T15:52:34;101721.22;;;15.31
69704;BMP280;56967;43.538;-5.646;2023-03-01T15:55:04;101712.88;;;15.10
69704;BMP280;56967;43.538;-5.646;2023-03-01T15:57:31;101722.00;;;14.02
69704;BMP280;56967;43.538;-5.646;2023-03-01T15:59:56;101714.44;;;14.05
69704;BMP280;56967;43.538;-5.646;2023-03-01T16:02:23;101712.81;;;14.04
69704;BMP280;56967;43.538;-5.646;2023-03-01T16:04:49;101716.94;;;13.94
69704;BMP280;56967;43.538;-5.646;2023-03-01T16:07:14;101715.81;;;14.15